createdAt,value
2024-02-17T00:01:15.197Z,64.63
2024-02-17T00:06:20.328Z,65.59
2024-02-17T00:11:23.933Z,65.52
2024-02-17T00:16:27.251Z,65.61
2024-02-17T00:21:30.508Z,66.39
2024-02-17T00:26:34.038Z,67.16
2024-02-17T00:31:37.601Z,66.64
2024-02-17T00:36:41.025Z,66.13
2024-02-17T00:41:45.667Z,67.30
2024-02-17T00:46:48.909Z,67.80
2024-02-17T00:51:52.037Z,67.40
2024-02-17T00:56:55.237Z,67.08
2024-02-17T01:01:59.591Z,67.28
2024-02-17T01:07:02.747Z,66.96
2024-02-17T01:12:06.530Z,68.68
2024-02-17T01:17:09.726Z,68.66
2024-02-17T01:22:12.885Z,67.99
2024-02-17T01:27:16.204Z,66.89
2024-02-17T01:32:19.408Z,67.57
2024-02-17T01:37:22.437Z,69.34
2024-02-17T01:42:25.560Z,68.41
2024-02-17T01:47:29.041Z,68.52
2024-02-17T01:52:32.990Z,68.53
2024-02-17T01:57:37.011Z,71.41
2024-02-17T02:02:43.021Z,69.77
2024-02-17T02:07:46.319Z,69.85
2024-02-17T02:12:49.651Z,69.63
2024-02-17T02:17:52.876Z,69.99
2024-02-17T02:22:56.167Z,70.81
2024-02-17T02:27:59.342Z,69.61
2024-02-17T02:33:02.784Z,70.73
2024-02-17T02:38:06.668Z,70.25
2024-02-17T02:43:10.040Z,69.23
2024-02-17T02:48:13.313Z,67.98
2024-02-17T02:53:16.744Z,67.35
2024-02-17T02:58:20.643Z,67.91
2024-02-17T03:03:24.036Z,67.33
2024-02-17T03:08:27.428Z,67.68
2024-02-17T03:13:30.695Z,67.66
2024-02-17T03:18:34.345Z,66.46
2024-02-17T03:23:37.605Z,66.28
2024-02-17T03:28:40.879Z,66.30
2024-02-17T03:34:59.933Z,66.44
2024-02-17T03:40:23.161Z,64.97
2024-02-17T03:45:26.433Z,64.06
2024-02-17T03:50:29.846Z,64.07
2024-02-17T03:55:33.282Z,64.81
2024-02-17T04:00:36.544Z,66.28
2024-02-17T04:05:39.786Z,65.62
2024-02-17T04:10:44.148Z,65.60
2024-02-17T04:15:47.697Z,65.09
2024-02-17T04:20:50.979Z,65.99
2024-02-17T04:25:54.547Z,65.23
2024-02-17T04:30:58.471Z,64.60
2024-02-17T04:36:02.023Z,64.11
2024-02-17T04:41:05.355Z,65.21
2024-02-17T04:46:08.558Z,66.00
2024-02-17T04:51:11.745Z,65.71
2024-02-17T04:56:15.515Z,66.52
2024-02-17T05:01:18.907Z,66.15
2024-02-17T05:06:23.510Z,65.76
2024-02-17T05:11:26.928Z,65.14
2024-02-17T05:16:30.108Z,64.99
2024-02-17T05:21:33.377Z,65.14
2024-02-17T05:26:37.540Z,64.82
2024-02-17T05:31:40.808Z,64.29
2024-02-17T05:36:44.039Z,64.21
2024-02-17T05:41:47.175Z,63.70
2024-02-17T05:46:50.283Z,63.54
2024-02-17T05:51:53.637Z,62.66
2024-02-17T05:56:56.839Z,62.11
2024-02-17T06:02:00.055Z,62.41
2024-02-17T06:07:04.080Z,62.36
2024-02-17T06:12:07.750Z,62.99
2024-02-17T06:17:11.827Z,64.17
2024-02-17T06:22:15.032Z,64.41
2024-02-17T06:27:18.340Z,63.59
2024-02-17T06:32:21.500Z,63.29
2024-02-17T06:37:25.150Z,63.63
2024-02-17T06:42:28.382Z,63.10
2024-02-17T06:47:31.909Z,62.83
2024-02-17T06:52:35.066Z,63.07
2024-02-17T06:57:38.905Z,63.53
2024-02-17T07:02:42.150Z,64.42
2024-02-17T07:07:45.431Z,64.27
2024-02-17T07:12:48.647Z,64.01
2024-02-17T07:17:51.893Z,63.55
2024-02-17T07:22:55.256Z,61.44
2024-02-17T07:27:59.193Z,60.33
2024-02-17T07:33:02.878Z,60.00
2024-02-17T07:38:06.362Z,60.64
2024-02-17T07:43:09.472Z,60.30
2024-02-17T07:48:12.903Z,59.76
2024-02-17T07:53:16.260Z,59.77
2024-02-17T07:58:19.583Z,60.39
2024-02-17T08:03:22.806Z,62.36
2024-02-17T08:08:26.357Z,61.71
2024-02-17T08:13:29.692Z,61.05
2024-02-17T08:18:33.472Z,60.50
2024-02-17T08:23:36.877Z,60.83
2024-02-17T08:28:40.141Z,59.82
2024-02-17T08:33:44.368Z,60.73
2024-02-17T08:38:47.916Z,60.72
2024-02-17T08:43:51.244Z,60.24
2024-02-17T08:48:54.649Z,59.06
2024-02-17T08:53:58.525Z,59.43
2024-02-17T08:59:02.034Z,59.41
2024-02-17T09:04:05.471Z,58.86
2024-02-17T09:09:09.104Z,58.68
2024-02-17T09:14:12.873Z,59.27
2024-02-17T09:19:16.229Z,60.38
2024-02-17T09:24:26.602Z,60.70
2024-02-17T09:29:29.926Z,63.08
2024-02-17T09:34:33.600Z,64.61
2024-02-17T09:39:40.853Z,66.76
2024-02-17T09:44:44.514Z,67.97
2024-02-17T09:49:48.726Z,70.44
2024-02-17T09:54:52.198Z,71.39
2024-02-17T09:59:55.632Z,71.92
2024-02-17T10:04:59.468Z,73.71
2024-02-17T10:10:03.152Z,74.14
2024-02-17T10:15:06.751Z,74.07
2024-02-17T10:20:12.208Z,75.10
2024-02-17T10:25:15.860Z,75.66
2024-02-17T10:30:21.960Z,75.17
2024-02-17T10:35:26.243Z,76.41
2024-02-17T10:40:32.189Z,75.92
2024-02-17T10:45:35.931Z,76.58
2024-02-17T10:50:43.038Z,75.88
2024-02-17T10:55:50.501Z,76.22
2024-02-17T11:00:53.863Z,76.30
2024-02-17T11:06:00.368Z,77.31
2024-02-17T11:11:22.453Z,77.44
2024-02-17T11:16:25.725Z,79.36
2024-02-17T11:21:37.854Z,78.90
2024-02-17T11:26:44.991Z,78.51
2024-02-17T11:31:49.365Z,77.78
2024-02-17T11:36:53.595Z,77.46
2024-02-17T11:41:58.510Z,79.04
2024-02-17T11:47:01.752Z,79.52
2024-02-17T11:52:05.228Z,78.28
2024-02-17T11:57:09.433Z,79.28
2024-02-17T12:02:12.569Z,78.94
2024-02-17T12:07:15.777Z,77.62
2024-02-17T12:12:18.972Z,77.61
2024-02-17T12:17:25.000Z,78.57
2024-02-17T12:22:28.569Z,79.12
2024-02-17T12:27:32.795Z,79.91
2024-02-17T12:32:39.117Z,80.07
2024-02-17T12:37:50.524Z,79.65
2024-02-17T12:42:54.892Z,79.98
2024-02-17T12:47:58.372Z,80.22
2024-02-17T12:53:16.906Z,80.12
2024-02-17T12:58:20.854Z,80.62
2024-02-17T13:03:26.054Z,79.28
2024-02-17T13:08:29.411Z,79.29
2024-02-17T13:13:34.382Z,78.48
2024-02-17T13:18:37.718Z,78.98
2024-02-17T13:23:41.044Z,78.98
2024-02-17T13:28:44.286Z,80.09
2024-02-17T13:33:48.502Z,81.18
2024-02-17T13:38:52.338Z,81.44
2024-02-17T13:43:55.542Z,81.15
2024-02-17T13:48:58.847Z,80.88
2024-02-17T13:54:04.042Z,80.89
2024-02-17T13:59:07.252Z,81.29
2024-02-17T14:04:10.709Z,81.51
2024-02-17T14:09:14.072Z,81.55
2024-02-17T14:14:19.642Z,81.74
2024-02-17T14:19:23.402Z,81.27
2024-02-17T14:24:26.713Z,81.44
2024-02-17T14:29:31.915Z,80.83
2024-02-17T14:34:35.345Z,79.95
2024-02-17T14:39:39.204Z,80.92
2024-02-17T14:44:42.727Z,80.24
2024-02-17T14:49:46.012Z,79.44
2024-02-17T14:54:49.209Z,80.12
2024-02-17T14:59:52.567Z,80.87
2024-02-17T15:04:55.768Z,80.55
2024-02-17T15:09:59.034Z,80.98
2024-02-17T15:15:03.122Z,80.18
2024-02-17T15:20:08.575Z,80.18
2024-02-17T15:25:11.811Z,79.89
2024-02-17T15:30:15.403Z,78.96
2024-02-17T15:35:18.784Z,79.44
2024-02-17T15:40:22.581Z,79.69
2024-02-17T15:45:25.764Z,80.07
2024-02-17T15:50:30.236Z,81.16
2024-02-17T15:55:33.502Z,81.56
2024-02-17T16:00:36.801Z,80.67
2024-02-17T16:05:40.183Z,80.00
2024-02-17T16:10:43.461Z,80.64
2024-02-17T16:15:49.967Z,80.45
2024-02-17T16:20:56.206Z,79.83
2024-02-17T16:25:59.467Z,79.65
2024-02-17T16:31:04.320Z,80.33
2024-02-17T16:36:08.523Z,79.86
2024-02-17T16:41:11.713Z,79.39
2024-02-17T16:46:14.871Z,79.30
2024-02-17T16:51:18.622Z,80.29
2024-02-17T16:56:21.831Z,81.23
2024-02-17T17:01:25.254Z,80.86
2024-02-17T17:06:28.535Z,81.70
2024-02-17T17:11:32.562Z,82.15
2024-02-17T17:16:35.996Z,81.31
2024-02-17T17:21:39.295Z,80.88
2024-02-17T17:26:50.004Z,80.67
2024-02-17T17:31:54.780Z,79.99
2024-02-17T17:36:58.165Z,80.79
2024-02-17T17:42:01.636Z,80.64
2024-02-17T17:47:05.845Z,80.19
2024-02-17T17:52:09.851Z,81.08
2024-02-17T17:57:13.414Z,80.87
2024-02-17T18:02:16.609Z,81.62
2024-02-17T18:07:21.521Z,80.67
2024-02-17T18:12:24.999Z,80.87
2024-02-17T18:17:29.756Z,80.09
2024-02-17T18:22:33.143Z,79.91
2024-02-17T18:27:36.655Z,79.95
2024-02-17T18:32:39.901Z,79.50
2024-02-17T18:37:43.596Z,79.18
2024-02-17T18:42:46.963Z,79.08
2024-02-17T18:47:50.441Z,79.12
2024-02-17T18:52:53.947Z,78.54
2024-02-17T18:57:57.136Z,77.55
2024-02-17T19:03:00.415Z,77.99
2024-02-17T19:08:04.617Z,77.85
2024-02-17T19:13:07.973Z,77.85
2024-02-17T19:18:11.156Z,78.59
2024-02-17T19:23:18.531Z,78.50
2024-02-17T19:28:22.448Z,78.01
2024-02-17T19:33:28.088Z,77.54
2024-02-17T19:38:31.591Z,77.49
2024-02-17T19:43:35.340Z,75.30
2024-02-17T19:48:38.858Z,73.28
2024-02-17T19:53:42.200Z,73.77
2024-02-17T19:58:45.352Z,73.85
2024-02-17T20:03:48.620Z,74.10
2024-02-17T20:08:55.478Z,74.00
2024-02-17T20:13:58.718Z,74.20
2024-02-17T20:19:02.095Z,73.76
2024-02-17T20:24:06.559Z,74.05
2024-02-17T20:29:09.911Z,74.27
2024-02-17T20:34:13.273Z,74.40
2024-02-17T20:39:16.404Z,74.53
2024-02-17T20:44:22.508Z,75.18
2024-02-17T20:49:25.647Z,76.11
2024-02-17T20:54:28.979Z,75.72
2024-02-17T20:59:32.192Z,76.06
2024-02-17T21:04:35.608Z,75.46
2024-02-17T21:09:38.951Z,75.36
2024-02-17T21:14:42.790Z,75.57
2024-02-17T21:19:46.810Z,75.98
2024-02-17T21:24:50.171Z,75.74
2024-02-17T21:29:53.324Z,74.40
2024-02-17T21:34:56.628Z,75.58
2024-02-17T21:40:00.074Z,75.87
2024-02-17T21:45:03.906Z,76.17
2024-02-17T21:50:07.407Z,75.20
2024-02-17T21:55:10.809Z,72.63
2024-02-17T22:00:14.436Z,72.11
2024-02-17T22:05:17.646Z,69.99
2024-02-17T22:10:20.969Z,69.11
2024-02-17T22:15:24.156Z,67.60
2024-02-17T22:20:27.410Z,66.33
2024-02-17T22:25:31.256Z,65.97
2024-02-17T22:30:34.633Z,66.86
2024-02-17T22:35:38.010Z,66.69
2024-02-17T22:40:41.256Z,65.19
2024-02-17T22:45:45.250Z,65.03
2024-02-17T22:50:48.485Z,66.13
2024-02-17T22:55:52.710Z,66.35
2024-02-17T23:00:56.057Z,65.81
2024-02-17T23:05:59.606Z,65.26
2024-02-17T23:11:03.987Z,65.26
2024-02-17T23:16:07.766Z,66.07
2024-02-17T23:21:11.271Z,65.92
2024-02-17T23:26:14.421Z,66.13
2024-02-17T23:31:17.693Z,66.59
2024-02-17T23:36:21.831Z,67.62
2024-02-17T23:41:25.169Z,67.19
2024-02-17T23:46:28.536Z,66.96
2024-02-17T23:51:32.270Z,66.74
2024-02-17T23:56:37.344Z,67.04
